Airport ICAO


13:32 UTC

23°C

Clear skies


An affordable passengers' Moving Map for your aircraft. Made for the iPad and the iPhone
More information here

LFMN Cote D'Azur


Nice FRANCE   VFR CAVOK


METAR LFMN 271300Z 12010KT 100V160 CAVOK 23/18 Q1016 NOSIG 0h32min

TAF LFMN 270800Z 2709/2815 10013KT CAVOK TEMPO 2710/2721 FEW110CB PROB30 TEMPO 2710/2721 TS SCT100CB TEMPO 2721/2815 4000 TSRA SCT060CB BKN110 5h32min





NOTAMS

OPEN